createdAt,value
2018-08-04T00:00:43.114Z,101176.05
2018-08-04T00:03:12.126Z,101171.17
2018-08-04T00:05:41.359Z,101178.05
2018-08-04T00:08:10.501Z,101179.02
2018-08-04T00:10:39.604Z,101173.20
2018-08-04T00:13:08.985Z,101177.41
2018-08-04T00:15:38.900Z,101176.89
2018-08-04T00:18:08.355Z,101178.28
2018-08-04T00:20:38.028Z,101180.91
2018-08-04T00:23:07.661Z,101174.38
2018-08-04T00:25:37.049Z,101168.22
2018-08-04T00:28:06.473Z,101177.27
2018-08-04T00:30:36.154Z,101179.51
2018-08-04T00:33:05.296Z,101170.91
2018-08-04T00:35:34.905Z,101175.16
2018-08-04T00:38:04.934Z,101177.55
2018-08-04T00:40:34.227Z,101176.73
2018-08-04T00:43:03.546Z,101178.67
2018-08-04T00:45:32.610Z,101183.25
2018-08-04T00:48:02.234Z,101181.35
2018-08-04T00:50:31.587Z,101184.52
2018-08-04T00:53:01.063Z,101185.92
2018-08-04T00:55:30.474Z,101182.89
2018-08-04T00:57:59.742Z,101181.90
2018-08-04T01:00:29.138Z,101184.58
2018-08-04T01:02:58.300Z,101182.37
2018-08-04T01:05:27.642Z,101182.37
2018-08-04T01:07:56.896Z,101183.83
2018-08-04T01:10:26.216Z,101180.41
2018-08-04T01:12:55.481Z,101181.63
2018-08-04T01:15:24.888Z,101185.40
2018-08-04T01:17:54.074Z,101187.30
2018-08-04T01:20:23.241Z,101187.44
2018-08-04T01:22:52.639Z,101185.73
2018-08-04T01:25:21.889Z,101182.97
2018-08-04T01:27:51.000Z,101178.00
2018-08-04T01:30:20.474Z,101176.70
2018-08-04T01:32:50.042Z,101172.77
2018-08-04T01:35:19.404Z,101168.30
2018-08-04T01:37:48.509Z,101166.00
2018-08-04T01:40:17.790Z,101166.20
2018-08-04T01:42:46.993Z,101173.94
2018-08-04T01:45:16.630Z,101176.91
2018-08-04T01:47:45.808Z,101179.36
2018-08-04T01:50:15.000Z,101172.13
2018-08-04T01:52:44.467Z,101166.11
2018-08-04T01:55:13.851Z,101159.73
2018-08-04T01:57:43.612Z,101163.16
2018-08-04T02:00:12.830Z,101164.89
2018-08-04T02:02:42.685Z,101160.22
2018-08-04T02:05:11.513Z,101159.23
2018-08-04T02:07:41.852Z,101155.41
2018-08-04T02:10:10.674Z,101147.23
2018-08-04T02:12:40.053Z,101149.80
2018-08-04T02:15:09.436Z,101153.42
2018-08-04T02:17:39.246Z,101154.50
2018-08-04T02:20:08.540Z,101158.59
2018-08-04T02:22:37.793Z,101159.25
2018-08-04T02:25:07.562Z,101155.72
2018-08-04T02:27:36.592Z,101150.84
2018-08-04T02:30:05.833Z,101151.92
2018-08-04T02:32:35.117Z,101152.86
2018-08-04T02:35:04.864Z,101154.28
2018-08-04T02:37:34.209Z,101150.08
2018-08-04T02:40:03.929Z,101153.62
2018-08-04T02:42:33.050Z,101142.02
2018-08-04T02:45:02.301Z,101138.56
2018-08-04T02:47:31.497Z,101138.16
2018-08-04T02:50:01.281Z,101128.70
2018-08-04T02:52:30.500Z,101125.47
2018-08-04T02:55:00.492Z,101126.23
2018-08-04T02:57:29.942Z,101124.48
2018-08-04T02:59:59.525Z,101123.73
2018-08-04T03:02:28.812Z,101117.44
2018-08-04T03:04:58.077Z,101127.89
2018-08-04T03:07:27.356Z,101127.23
2018-08-04T03:09:56.448Z,101126.55
2018-08-04T03:12:26.746Z,101126.09
2018-08-04T03:14:56.138Z,101129.64
2018-08-04T03:17:25.427Z,101135.55
2018-08-04T03:19:54.819Z,101134.78
2018-08-04T03:22:24.146Z,101131.96
2018-08-04T03:24:54.863Z,101132.34
2018-08-04T03:27:24.064Z,101140.69
2018-08-04T03:29:53.267Z,101146.63
2018-08-04T03:32:22.505Z,101141.60
2018-08-04T03:34:51.963Z,101141.41
2018-08-04T03:37:22.143Z,101153.73
2018-08-04T03:39:51.695Z,101150.33
2018-08-04T03:42:22.240Z,101154.58
2018-08-04T03:44:51.578Z,101156.28
2018-08-04T03:47:21.293Z,101159.78
2018-08-04T03:49:50.744Z,101151.33
2018-08-04T03:52:20.261Z,101152.04
2018-08-04T03:54:49.613Z,101151.06
2018-08-04T03:57:19.100Z,101145.36
2018-08-04T03:59:48.728Z,101145.93
2018-08-04T04:02:18.101Z,101147.31
2018-08-04T04:04:47.770Z,101148.34
2018-08-04T04:07:17.421Z,101146.39
2018-08-04T04:09:47.089Z,101140.98
2018-08-04T04:12:16.484Z,101142.17
2018-08-04T04:14:46.241Z,101142.33
2018-08-04T04:17:15.681Z,101152.34
2018-08-04T04:19:45.476Z,101149.86
2018-08-04T04:22:15.035Z,101156.94
2018-08-04T04:24:45.012Z,101157.69
2018-08-04T04:27:14.572Z,101171.66
2018-08-04T04:29:44.006Z,101175.07
2018-08-04T04:32:13.487Z,101173.25
2018-08-04T04:34:43.292Z,101170.32
2018-08-04T04:37:13.063Z,101166.70
2018-08-04T04:39:42.417Z,101168.79
2018-08-04T04:42:11.784Z,101174.20
2018-08-04T04:44:41.444Z,101178.58
2018-08-04T04:47:10.732Z,101176.79
2018-08-04T04:49:39.921Z,101181.09
2018-08-04T04:52:09.335Z,101180.53
2018-08-04T04:54:38.868Z,101168.48
2018-08-04T04:57:08.362Z,101178.17
2018-08-04T04:59:37.966Z,101176.27
2018-08-04T05:02:07.814Z,101171.34
2018-08-04T05:04:37.006Z,101172.66
2018-08-04T05:07:09.440Z,101172.09
2018-08-04T05:09:38.713Z,101183.66
2018-08-04T05:12:08.214Z,101192.53
2018-08-04T05:14:37.759Z,101188.15
2018-08-04T05:17:07.133Z,101194.32
2018-08-04T05:19:36.681Z,101196.78
2018-08-04T05:22:06.006Z,101190.50
2018-08-04T05:24:35.471Z,101184.48
2018-08-04T05:27:05.180Z,101192.68
2018-08-04T05:29:34.862Z,101193.63
2018-08-04T05:32:04.224Z,101188.66
2018-08-04T05:34:33.857Z,101189.96
2018-08-04T05:37:03.385Z,101186.36
2018-08-04T05:39:33.611Z,101184.73
2018-08-04T05:42:03.063Z,101197.58
2018-08-04T05:44:33.532Z,101202.84
2018-08-04T05:47:03.593Z,101199.86
2018-08-04T05:49:32.908Z,101209.53
2018-08-04T05:52:02.440Z,101207.30
2018-08-04T05:54:31.936Z,101205.33
2018-08-04T05:57:01.402Z,101209.34
2018-08-04T05:59:30.992Z,101209.39
2018-08-04T06:02:00.390Z,101200.36
2018-08-04T06:04:29.994Z,101207.95
2018-08-04T06:06:59.323Z,101209.78
2018-08-04T06:09:28.735Z,101209.78
2018-08-04T06:11:58.729Z,101214.66
2018-08-04T06:14:28.232Z,101211.34
2018-08-04T06:16:57.605Z,101212.19
2018-08-04T06:19:27.790Z,101217.14
2018-08-04T06:22:03.647Z,101218.09
2018-08-04T06:24:33.345Z,101221.21
2018-08-04T06:27:03.695Z,101220.88
2018-08-04T06:29:33.629Z,101214.90
2018-08-04T06:32:03.114Z,101219.92
2018-08-04T06:34:32.736Z,101224.06
2018-08-04T06:37:02.621Z,101234.31
2018-08-04T06:39:33.085Z,101229.66
2018-08-04T06:42:02.687Z,101229.22
2018-08-04T06:44:32.181Z,101234.68
2018-08-04T06:47:01.711Z,101240.02
2018-08-04T06:49:31.673Z,101243.37
2018-08-04T06:52:00.948Z,101237.47
2018-08-04T06:54:30.230Z,101232.44
2018-08-04T06:56:59.612Z,101237.41
2018-08-04T06:59:29.189Z,101234.96
2018-08-04T07:01:58.649Z,101238.16
2018-08-04T07:04:28.259Z,101233.65
2018-08-04T07:06:57.613Z,101227.86
2018-08-04T07:09:27.121Z,101234.45
2018-08-04T07:11:56.874Z,101233.14
2018-08-04T07:14:26.292Z,101228.09
2018-08-04T07:16:56.467Z,101230.16
2018-08-04T07:19:25.781Z,101235.16
2018-08-04T07:21:55.445Z,101236.95
2018-08-04T07:24:25.361Z,101232.94
2018-08-04T07:26:54.834Z,101234.08
2018-08-04T07:29:24.270Z,101231.61
2018-08-04T07:31:54.484Z,101224.73
2018-08-04T07:34:24.175Z,101231.52
2018-08-04T07:36:53.660Z,101233.52
2018-08-04T07:39:23.261Z,101237.05
2018-08-04T07:41:52.922Z,101237.05
2018-08-04T07:44:22.407Z,101244.83
2018-08-04T07:46:51.703Z,101250.63
2018-08-04T07:49:21.333Z,101249.50
2018-08-04T07:51:50.786Z,101252.55
2018-08-04T07:54:20.269Z,101262.12
2018-08-04T07:56:49.867Z,101262.38
2018-08-04T07:59:19.358Z,101255.70
2018-08-04T08:01:49.412Z,101260.73
2018-08-04T08:04:24.435Z,101250.20
2018-08-04T08:06:55.300Z,101253.54
2018-08-04T08:09:24.655Z,101250.69
2018-08-04T08:11:58.460Z,101250.43
2018-08-04T08:14:28.417Z,101257.78
2018-08-04T08:17:02.159Z,101264.63
2018-08-04T08:19:31.672Z,101255.48
2018-08-04T08:22:01.621Z,101259.27
2018-08-04T08:24:31.747Z,101255.69
2018-08-04T08:27:02.387Z,101255.57
2018-08-04T08:29:36.706Z,101256.45
2018-08-04T08:32:06.395Z,101253.95
2018-08-04T08:34:35.943Z,101262.76
2018-08-04T08:37:05.377Z,101262.12
2018-08-04T08:39:34.934Z,101260.79
2018-08-04T08:42:04.752Z,101259.35
2018-08-04T08:44:34.168Z,101263.20
2018-08-04T08:47:03.833Z,101258.71
2018-08-04T08:49:33.381Z,101262.83
2018-08-04T08:52:02.952Z,101257.44
2018-08-04T08:54:32.329Z,101262.38
2018-08-04T08:57:02.156Z,101260.13
2018-08-04T08:59:31.553Z,101262.91
2018-08-04T09:02:00.829Z,101267.87
2018-08-04T09:04:30.540Z,101268.74
2018-08-04T09:07:00.695Z,101258.36
2018-08-04T09:09:30.070Z,101257.61
2018-08-04T09:12:01.456Z,101268.02
2018-08-04T09:14:31.142Z,101265.38
2018-08-04T09:17:00.975Z,101266.38
2018-08-04T09:19:30.394Z,101267.91
2018-08-04T09:22:00.096Z,101264.00
2018-08-04T09:24:29.818Z,101267.31
2018-08-04T09:26:59.952Z,101268.56
2018-08-04T09:29:29.360Z,101261.84
2018-08-04T09:31:58.984Z,101277.16
2018-08-04T09:34:28.926Z,101270.70
2018-08-04T09:36:58.709Z,101268.95
2018-08-04T09:39:28.069Z,101265.28
2018-08-04T09:41:57.712Z,101265.91
2018-08-04T09:44:27.043Z,101267.53
2018-08-04T09:46:56.545Z,101268.00
2018-08-04T09:49:26.053Z,101268.59
2018-08-04T09:51:55.530Z,101274.44
2018-08-04T09:54:25.072Z,101273.08
2018-08-04T09:56:54.582Z,101273.21
2018-08-04T09:59:23.911Z,101267.45
2018-08-04T10:01:57.750Z,101271.22
2018-08-04T10:04:27.302Z,101273.17
2018-08-04T10:06:56.886Z,101265.64
2018-08-04T10:09:26.440Z,101267.33
2018-08-04T10:11:55.865Z,101263.81
2018-08-04T10:14:25.685Z,101273.08
2018-08-04T10:16:59.389Z,101267.25
2018-08-04T10:19:29.130Z,101268.38
2018-08-04T10:21:58.990Z,101267.55
2018-08-04T10:24:28.589Z,101269.73
2018-08-04T10:26:58.003Z,101271.09
2018-08-04T10:29:28.108Z,101270.20
2018-08-04T10:31:57.617Z,101272.14
2018-08-04T10:34:31.897Z,101264.50
2018-08-04T10:37:01.786Z,101271.22
2018-08-04T10:39:31.853Z,101267.52
2018-08-04T10:42:01.542Z,101265.70
2018-08-04T10:44:31.333Z,101271.98
2018-08-04T10:47:00.981Z,101272.56
2018-08-04T10:49:30.710Z,101261.91
2018-08-04T10:52:00.075Z,101266.16
2018-08-04T10:54:29.391Z,101258.30
2018-08-04T10:56:58.907Z,101257.30
2018-08-04T10:59:28.240Z,101250.28
2018-08-04T11:01:57.670Z,101250.59
2018-08-04T11:04:27.451Z,101251.59
2018-08-04T11:06:57.448Z,101252.38
2018-08-04T11:09:27.043Z,101240.24
2018-08-04T11:11:56.525Z,101243.11
2018-08-04T11:14:26.022Z,101236.13
2018-08-04T11:16:55.815Z,101236.72
2018-08-04T11:19:25.423Z,101241.52
2018-08-04T11:21:54.833Z,101233.06
2018-08-04T11:24:24.071Z,101240.34
2018-08-04T11:26:53.624Z,101236.94
2018-08-04T11:29:23.163Z,101245.41
2018-08-04T11:31:53.130Z,101245.62
2018-08-04T11:34:22.712Z,101241.39
2018-08-04T11:36:52.333Z,101234.06
2018-08-04T11:39:22.047Z,101246.47
2018-08-04T11:41:52.332Z,101237.45
2018-08-04T11:44:22.398Z,101232.41
2018-08-04T11:46:51.890Z,101239.78
2018-08-04T11:49:21.757Z,101238.98
2018-08-04T11:51:51.144Z,101236.44
2018-08-04T11:54:20.967Z,101234.28
2018-08-04T11:56:50.642Z,101226.56
2018-08-04T11:59:20.128Z,101223.66
2018-08-04T12:01:49.901Z,101231.87
2018-08-04T12:04:19.526Z,101216.53
2018-08-04T12:06:49.399Z,101220.50
2018-08-04T12:09:19.204Z,101219.04
2018-08-04T12:11:48.609Z,101226.23
2018-08-04T12:14:18.185Z,101228.15
2018-08-04T12:16:47.733Z,101222.44
2018-08-04T12:19:17.017Z,101214.81
2018-08-04T12:21:46.343Z,101222.09
2018-08-04T12:24:15.752Z,101225.07
2018-08-04T12:26:45.372Z,101211.96
2018-08-04T12:29:14.794Z,101213.00
2018-08-04T12:31:45.140Z,101200.16
2018-08-04T12:34:14.367Z,101203.56
2018-08-04T12:36:44.222Z,101206.72
2018-08-04T12:39:13.807Z,101207.77
2018-08-04T12:41:43.072Z,101210.66
2018-08-04T12:44:12.677Z,101207.19
2018-08-04T12:46:42.227Z,101201.17
2018-08-04T12:49:11.760Z,101194.86
2018-08-04T12:51:42.211Z,101194.09
2018-08-04T12:54:11.868Z,101192.15
2018-08-04T12:56:41.268Z,101184.64
2018-08-04T12:59:10.896Z,101186.25
2018-08-04T13:01:40.461Z,101193.98
2018-08-04T13:04:09.806Z,101189.77
2018-08-04T13:06:39.312Z,101189.77
2018-08-04T13:09:10.832Z,101194.04
2018-08-04T13:11:40.291Z,101197.66
2018-08-04T13:14:10.298Z,101196.48
2018-08-04T13:16:40.050Z,101190.89
2018-08-04T13:19:09.413Z,101191.95
2018-08-04T13:21:38.746Z,101192.45
2018-08-04T13:24:08.722Z,101193.98
2018-08-04T13:26:38.862Z,101190.23
2018-08-04T13:29:08.226Z,101178.34
2018-08-04T13:31:37.770Z,101190.78
2018-08-04T13:34:07.110Z,101185.48
2018-08-04T13:36:36.669Z,101177.99
2018-08-04T13:39:08.951Z,101177.31
2018-08-04T13:41:39.130Z,101171.83
2018-08-04T13:44:08.721Z,101174.52
2018-08-04T13:46:38.566Z,101181.00
2018-08-04T13:49:08.110Z,101167.91
2018-08-04T13:51:37.907Z,101173.33
2018-08-04T13:54:07.691Z,101181.68
2018-08-04T13:56:37.059Z,101168.44
2018-08-04T13:59:07.553Z,101166.91
2018-08-04T14:01:36.987Z,101168.94
2018-08-04T14:04:06.624Z,101172.70
2018-08-04T14:06:36.037Z,101168.81
2018-08-04T14:09:06.813Z,101171.86
2018-08-04T14:11:36.370Z,101168.11
2018-08-04T14:14:06.226Z,101166.84
2018-08-04T14:16:35.625Z,101167.12
2018-08-04T14:19:05.173Z,101167.83
2018-08-04T14:21:34.809Z,101170.05
2018-08-04T14:24:04.390Z,101155.69
2018-08-04T14:26:33.880Z,101159.92
2018-08-04T14:29:03.286Z,101157.91
2018-08-04T14:31:32.825Z,101158.06
2018-08-04T14:34:02.432Z,101156.37
2018-08-04T14:36:32.076Z,101153.13
2018-08-04T14:39:01.654Z,101156.55
2018-08-04T14:41:31.207Z,101159.46
2018-08-04T14:44:04.912Z,101161.98
2018-08-04T14:46:36.358Z,101154.53
2018-08-04T14:49:05.789Z,101153.01
2018-08-04T14:51:35.148Z,101160.64
2018-08-04T14:54:04.773Z,101154.86
2018-08-04T14:56:34.403Z,101152.66
2018-08-04T14:59:04.145Z,101161.86
2018-08-04T15:01:33.559Z,101162.33
2018-08-04T15:04:03.082Z,101154.12
2018-08-04T15:06:32.668Z,101158.83
2018-08-04T15:09:02.197Z,101158.80
2018-08-04T15:11:31.625Z,101149.47
2018-08-04T15:14:01.204Z,101152.34
2018-08-04T15:16:30.898Z,101150.83
2018-08-04T15:19:00.487Z,101156.45
2018-08-04T15:21:29.825Z,101149.47
2018-08-04T15:23:59.352Z,101145.91
2018-08-04T15:26:28.702Z,101155.92
2018-08-04T15:28:58.187Z,101135.01
2018-08-04T15:31:27.428Z,101139.58
2018-08-04T15:33:56.898Z,101143.66
2018-08-04T15:36:26.234Z,101139.55
2018-08-04T15:38:55.471Z,101148.05
2018-08-04T15:41:25.076Z,101138.83
2018-08-04T15:43:54.928Z,101141.59
2018-08-04T15:46:25.647Z,101139.39
2018-08-04T15:48:55.158Z,101135.02
2018-08-04T15:51:24.560Z,101143.81
2018-08-04T15:53:54.961Z,101149.06
2018-08-04T15:56:24.582Z,101146.30
2018-08-04T15:58:54.083Z,101137.97
2018-08-04T16:01:23.663Z,101149.96
2018-08-04T16:03:53.261Z,101148.07
2018-08-04T16:06:22.959Z,101153.06
2018-08-04T16:08:52.424Z,101148.50
2018-08-04T16:11:22.112Z,101141.44
2018-08-04T16:13:51.992Z,101141.31
2018-08-04T16:16:21.613Z,101137.07
2018-08-04T16:18:51.404Z,101138.77
2018-08-04T16:21:21.246Z,101146.59
2018-08-04T16:23:50.975Z,101146.53
2018-08-04T16:26:20.787Z,101143.28
2018-08-04T16:28:51.305Z,101147.09
2018-08-04T16:31:21.068Z,101145.53
2018-08-04T16:33:50.450Z,101150.67
2018-08-04T16:36:20.356Z,101148.12
2018-08-04T16:38:49.872Z,101145.25
2018-08-04T16:41:19.109Z,101148.30
2018-08-04T16:43:48.588Z,101143.31
2018-08-04T16:46:18.353Z,101140.95
2018-08-04T16:48:48.026Z,101139.94
2018-08-04T16:51:17.498Z,101143.52
2018-08-04T16:53:47.049Z,101145.63
2018-08-04T16:56:17.111Z,101143.21
2018-08-04T16:58:46.448Z,101146.88
2018-08-04T17:01:16.772Z,101153.48
2018-08-04T17:03:46.028Z,101151.34
2018-08-04T17:06:15.544Z,101156.50
2018-08-04T17:08:44.936Z,101163.99
2018-08-04T17:11:14.325Z,101169.63
2018-08-04T17:13:43.669Z,101172.13
2018-08-04T17:16:13.087Z,101174.66
2018-08-04T17:18:42.728Z,101178.64
2018-08-04T17:21:12.328Z,101181.09
2018-08-04T17:23:41.653Z,101180.84
2018-08-04T17:26:10.993Z,101177.05
2018-08-04T17:28:40.594Z,101172.83
2018-08-04T17:31:09.970Z,101179.33
2018-08-04T17:33:39.684Z,101183.77
2018-08-04T17:36:09.364Z,101180.79
2018-08-04T17:38:38.811Z,101186.63
2018-08-04T17:41:08.298Z,101193.30
2018-08-04T17:43:37.840Z,101194.38
2018-08-04T17:46:07.477Z,101196.03
2018-08-04T17:48:36.925Z,101196.73
2018-08-04T17:51:06.597Z,101201.62
2018-08-04T17:53:36.271Z,101200.05
2018-08-04T17:56:06.940Z,101215.17
2018-08-04T17:58:36.561Z,101218.19
2018-08-04T18:01:06.152Z,101211.49
2018-08-04T18:03:35.517Z,101216.84
2018-08-04T18:06:05.525Z,101217.45
2018-08-04T18:08:34.994Z,101220.08
2018-08-04T18:11:04.780Z,101215.38
2018-08-04T18:13:34.408Z,101218.71
2018-08-04T18:16:03.739Z,101225.29
2018-08-04T18:18:33.535Z,101230.27
2018-08-04T18:21:03.090Z,101232.66
2018-08-04T18:23:32.386Z,101232.52
2018-08-04T18:26:05.067Z,101237.34
2018-08-04T18:28:34.672Z,101241.34
2018-08-04T18:31:04.410Z,101238.84
2018-08-04T18:33:34.041Z,101247.06
2018-08-04T18:36:03.494Z,101248.45
2018-08-04T18:38:33.097Z,101247.26
2018-08-04T18:41:02.504Z,101261.14
2018-08-04T18:43:32.248Z,101256.05
2018-08-04T18:46:01.706Z,101260.48
2018-08-04T18:48:31.369Z,101259.58
2018-08-04T18:51:01.755Z,101264.22
2018-08-04T18:53:31.237Z,101272.36
2018-08-04T18:56:00.730Z,101262.95
2018-08-04T18:58:30.294Z,101275.61
2018-08-04T19:00:59.866Z,101283.09
2018-08-04T19:03:29.887Z,101273.77
2018-08-04T19:06:00.119Z,101278.83
2018-08-04T19:08:30.035Z,101281.06
2018-08-04T19:10:59.947Z,101279.72
2018-08-04T19:13:29.607Z,101280.72
2018-08-04T19:15:59.243Z,101291.14
2018-08-04T19:18:28.580Z,101294.70
2018-08-04T19:20:59.222Z,101294.45
2018-08-04T19:23:28.902Z,101302.17
2018-08-04T19:25:59.232Z,101306.29
2018-08-04T19:28:33.338Z,101313.62
2018-08-04T19:31:05.252Z,101315.92
2018-08-04T19:33:46.062Z,101313.94
2018-08-04T19:36:17.390Z,101322.80
2018-08-04T19:38:48.028Z,101332.39
2018-08-04T19:41:17.485Z,101340.84
2018-08-04T19:43:49.040Z,101336.22
2018-08-04T19:46:27.377Z,101342.80
2018-08-04T19:49:04.265Z,101343.44
2018-08-04T19:51:40.321Z,101348.20
2018-08-04T19:54:09.944Z,101353.92
2018-08-04T19:56:45.002Z,101356.95
2018-08-04T19:59:14.687Z,101360.67
2018-08-04T20:01:44.602Z,101362.05
2018-08-04T20:04:14.304Z,101363.86
2018-08-04T20:06:43.541Z,101366.10
2018-08-04T20:09:13.115Z,101370.61
2018-08-04T20:11:42.527Z,101377.83
2018-08-04T20:14:13.288Z,101376.08
2018-08-04T20:16:44.727Z,101378.34
2018-08-04T20:19:14.430Z,101379.27
2018-08-04T20:21:55.044Z,101378.75
2018-08-04T20:24:24.377Z,101378.38
2018-08-04T20:26:55.468Z,101381.86
2018-08-04T20:29:31.839Z,101386.33
2018-08-04T20:32:01.438Z,101385.95
2018-08-04T20:34:34.057Z,101379.19
2018-08-04T20:37:03.377Z,101384.69
2018-08-04T20:39:44.904Z,101388.71
2018-08-04T20:42:14.702Z,101392.96
2018-08-04T20:44:47.031Z,101392.89
2018-08-04T20:47:17.924Z,101402.67
2018-08-04T20:49:47.271Z,101399.99
2018-08-04T20:52:16.680Z,101404.73
2018-08-04T20:54:45.991Z,101399.39
2018-08-04T20:57:17.257Z,101392.29
2018-08-04T20:59:46.596Z,101403.58
2018-08-04T21:02:15.891Z,101397.89
2018-08-04T21:04:45.125Z,101402.28
2018-08-04T21:07:14.427Z,101398.50
2018-08-04T21:09:46.679Z,101397.38
2018-08-04T21:12:16.511Z,101400.20
2018-08-04T21:14:46.259Z,101395.81
2018-08-04T21:17:15.719Z,101395.34
2018-08-04T21:19:45.314Z,101398.95
2018-08-04T21:22:14.687Z,101396.41
2018-08-04T21:24:44.737Z,101391.55
2018-08-04T21:27:14.839Z,101399.30
2018-08-04T21:29:44.159Z,101401.98
2018-08-04T21:32:13.323Z,101399.30
2018-08-04T21:34:43.777Z,101400.09
2018-08-04T21:37:17.504Z,101401.34
2018-08-04T21:39:46.769Z,101404.77
2018-08-04T21:42:16.193Z,101408.30
2018-08-04T21:44:45.799Z,101414.53
2018-08-04T21:47:15.074Z,101418.92
2018-08-04T21:49:44.911Z,101414.73
2018-08-04T21:52:14.472Z,101414.03
2018-08-04T21:54:43.897Z,101416.83
2018-08-04T21:57:13.694Z,101419.30
2018-08-04T21:59:43.260Z,101418.45
2018-08-04T22:02:12.778Z,101418.75
2018-08-04T22:04:42.306Z,101420.34
2018-08-04T22:07:48.894Z,101421.95
2018-08-04T22:10:18.163Z,101432.19
2018-08-04T22:12:47.975Z,101429.13
2018-08-04T22:15:17.466Z,101428.84
2018-08-04T22:17:46.657Z,101436.28
2018-08-04T22:20:17.119Z,101425.47
2018-08-04T22:22:46.392Z,101435.03
2018-08-04T22:25:17.031Z,101435.19
2018-08-04T22:27:46.187Z,101432.63
2018-08-04T22:30:17.557Z,101437.48
2018-08-04T22:32:47.291Z,101437.53
2018-08-04T22:35:16.784Z,101436.05
2018-08-04T22:37:46.633Z,101442.20
2018-08-04T22:40:16.726Z,101442.42
2018-08-04T22:42:46.079Z,101440.36
2018-08-04T22:46:24.794Z,101451.17
2018-08-04T22:48:54.892Z,101447.77
2018-08-04T22:51:26.416Z,101451.66
2018-08-04T22:53:55.581Z,101453.65
2018-08-04T22:56:26.061Z,101453.33
2018-08-04T22:58:55.341Z,101462.04
2018-08-04T23:01:24.581Z,101451.61
2018-08-04T23:03:53.874Z,101454.74
2018-08-04T23:06:23.088Z,101457.41
2018-08-04T23:08:52.392Z,101462.38
2018-08-04T23:11:22.928Z,101466.94
2018-08-04T23:13:52.022Z,101462.80
2018-08-04T23:16:21.291Z,101469.63
2018-08-04T23:18:54.279Z,101466.69
2018-08-04T23:21:23.575Z,101470.51
2018-08-04T23:23:52.965Z,101472.36
2018-08-04T23:26:22.297Z,101476.89
2018-08-04T23:28:51.460Z,101478.97
2018-08-04T23:31:21.715Z,101477.04
2018-08-04T23:33:50.857Z,101477.50
2018-08-04T23:36:20.201Z,101478.38
2018-08-04T23:38:49.440Z,101482.42
2018-08-04T23:41:18.562Z,101490.03
2018-08-04T23:43:47.882Z,101480.41
2018-08-04T23:46:17.499Z,101486.77
2018-08-04T23:48:46.737Z,101487.01
2018-08-04T23:51:15.914Z,101486.45
2018-08-04T23:53:45.276Z,101489.84
2018-08-04T23:56:15.079Z,101489.62
2018-08-04T23:58:44.505Z,101495.02
